createdAt,value
2019-04-07T00:00:25.601Z,25.27
2019-04-07T00:02:56.845Z,25.23
2019-04-07T00:05:27.911Z,24.47
2019-04-07T00:07:59.157Z,24.93
2019-04-07T00:10:30.431Z,25.00
2019-04-07T00:13:01.943Z,25.33
2019-04-07T00:15:33.324Z,23.40
2019-04-07T00:18:04.358Z,24.53
2019-04-07T00:20:36.367Z,25.93
2019-04-07T00:23:07.690Z,26.47
2019-04-07T00:25:39.905Z,26.67
2019-04-07T00:28:12.072Z,26.57
2019-04-07T00:30:43.535Z,29.20
2019-04-07T00:33:14.549Z,26.53
2019-04-07T00:35:45.918Z,26.37
2019-04-07T00:38:17.162Z,24.73
2019-04-07T00:40:49.294Z,24.20
2019-04-07T00:43:20.913Z,25.37
2019-04-07T00:45:52.479Z,26.53
2019-04-07T00:48:24.609Z,28.77
2019-04-07T00:50:55.900Z,28.80
2019-04-07T00:53:27.370Z,29.03
2019-04-07T00:55:58.478Z,28.77
2019-04-07T00:58:30.153Z,26.20
2019-04-07T01:01:01.738Z,26.17
2019-04-07T01:03:32.979Z,26.43
2019-04-07T01:06:04.418Z,24.47
2019-04-07T01:08:36.048Z,24.77
2019-04-07T01:11:07.688Z,24.57
2019-04-07T01:13:38.795Z,25.73
2019-04-07T01:16:09.895Z,25.33
2019-04-07T01:18:40.838Z,25.57
2019-04-07T01:21:11.776Z,25.07
2019-04-07T01:23:43.615Z,27.23
2019-04-07T01:26:15.190Z,24.60
2019-04-07T01:28:46.254Z,25.80
2019-04-07T01:31:17.671Z,25.97
2019-04-07T01:33:48.908Z,26.20
2019-04-07T01:36:20.382Z,25.20
2019-04-07T01:38:52.136Z,27.33
2019-04-07T01:41:34.273Z,26.57
2019-04-07T01:44:14.386Z,27.43
2019-04-07T01:46:58.581Z,27.50
2019-04-07T01:49:52.326Z,25.30
2019-04-07T01:52:32.794Z,26.00
2019-04-07T01:55:15.647Z,25.87
2019-04-07T01:58:04.767Z,26.23
2019-04-07T02:00:50.587Z,26.73
2019-04-07T02:03:43.602Z,28.77
2019-04-07T02:06:36.533Z,29.50
2019-04-07T02:09:34.448Z,26.10
2019-04-07T02:12:16.980Z,26.07
2019-04-07T02:15:02.311Z,27.57
2019-04-07T02:17:55.948Z,27.37
2019-04-07T02:21:08.494Z,28.27
2019-04-07T02:24:05.071Z,27.27
2019-04-07T02:26:47.603Z,29.47
2019-04-07T02:29:43.773Z,28.33
2019-04-07T02:32:36.595Z,29.43
2019-04-07T02:35:32.756Z,28.80
2019-04-07T02:38:15.042Z,27.63
2019-04-07T02:41:20.783Z,29.67
2019-04-07T02:44:22.853Z,28.27
2019-04-07T02:47:09.777Z,27.47
2019-04-07T02:49:50.080Z,27.53
2019-04-07T02:52:49.306Z,27.47
2019-04-07T02:55:35.556Z,28.93
2019-04-07T02:58:20.579Z,27.53
2019-04-07T03:01:22.877Z,26.90
2019-04-07T03:04:08.414Z,26.70
2019-04-07T03:07:02.563Z,27.83
2019-04-07T03:09:44.007Z,27.80
2019-04-07T03:12:23.513Z,28.63
2019-04-07T03:15:22.736Z,29.17
2019-04-07T03:18:24.250Z,29.33
2019-04-07T03:21:14.649Z,28.20
2019-04-07T03:23:53.772Z,27.67
2019-04-07T03:26:42.613Z,27.77
2019-04-07T03:29:29.835Z,27.47
2019-04-07T03:32:20.106Z,27.60
2019-04-07T03:35:12.149Z,28.10
2019-04-07T03:38:02.653Z,28.87
2019-04-07T03:40:51.775Z,27.93
2019-04-07T03:43:47.846Z,26.83
2019-04-07T03:46:28.435Z,27.57
2019-04-07T03:49:06.131Z,27.00
2019-04-07T03:51:52.843Z,27.40
2019-04-07T03:54:30.289Z,26.70
2019-04-07T03:57:16.636Z,26.73
2019-04-07T04:00:07.029Z,27.37
2019-04-07T04:03:02.973Z,26.87
2019-04-07T04:05:41.598Z,26.70
2019-04-07T04:08:22.371Z,28.03
2019-04-07T04:11:00.042Z,25.97
2019-04-07T04:13:42.252Z,27.23
2019-04-07T04:16:18.079Z,27.60
2019-04-07T04:18:50.242Z,25.90
2019-04-07T04:21:24.203Z,26.47
2019-04-07T04:23:55.705Z,27.87
2019-04-07T04:26:27.029Z,26.50
2019-04-07T04:28:58.314Z,27.93
2019-04-07T04:31:29.487Z,28.97
2019-04-07T04:34:01.611Z,27.60
2019-04-07T04:36:34.311Z,27.23
2019-04-07T04:39:08.298Z,26.70
2019-04-07T04:41:40.330Z,25.33
2019-04-07T04:44:24.196Z,26.73
2019-04-07T04:46:56.182Z,27.80
2019-04-07T04:49:27.389Z,28.40
2019-04-07T04:51:58.705Z,27.13
2019-04-07T04:54:31.696Z,28.20
2019-04-07T04:57:06.387Z,28.23
2019-04-07T04:59:36.583Z,27.63
2019-04-07T05:02:07.855Z,28.93
2019-04-07T05:07:57.767Z,28.77
2019-04-07T05:10:21.023Z,28.70
2019-04-07T05:12:52.220Z,27.87
2019-04-07T05:15:23.154Z,28.70
2019-04-07T05:17:57.309Z,29.17
2019-04-07T05:20:28.568Z,28.27
2019-04-07T05:23:00.987Z,29.70
2019-04-07T05:25:32.756Z,27.67
2019-04-07T05:28:04.692Z,27.27
2019-04-07T05:30:38.049Z,27.80
2019-04-07T05:33:09.932Z,28.10
2019-04-07T05:35:41.002Z,27.50
2019-04-07T05:38:13.625Z,29.03
2019-04-07T05:40:44.868Z,27.67
2019-04-07T05:43:16.130Z,27.33
2019-04-07T05:45:47.352Z,29.13
2019-04-07T05:48:20.360Z,30.47
2019-04-07T05:50:51.421Z,30.83
2019-04-07T05:53:23.303Z,33.10
2019-04-07T05:55:55.567Z,35.50
2019-04-07T05:58:27.822Z,35.60
2019-04-07T06:00:59.520Z,37.47
2019-04-07T06:03:31.808Z,36.53
2019-04-07T06:06:03.099Z,36.40
2019-04-07T06:08:37.997Z,36.93
2019-04-07T06:11:07.279Z,38.37
2019-04-07T06:13:39.088Z,40.10
2019-04-07T06:16:10.440Z,41.93
2019-04-07T06:18:42.120Z,41.73
2019-04-07T06:21:15.305Z,43.40
2019-04-07T06:23:46.112Z,42.23
2019-04-07T06:26:17.325Z,42.90
2019-04-07T06:28:52.152Z,43.73
2019-04-07T06:31:24.473Z,44.23
2019-04-07T06:33:55.174Z,46.20
2019-04-07T06:36:26.870Z,46.07
2019-04-07T06:38:59.346Z,43.53
2019-04-07T06:41:32.330Z,44.80
2019-04-07T06:44:12.965Z,46.07
2019-04-07T06:46:59.202Z,45.73
2019-04-07T06:49:48.436Z,46.87
2019-04-07T06:52:50.907Z,46.33
2019-04-07T06:55:53.956Z,47.20
2019-04-07T06:58:31.074Z,47.07
2019-04-07T07:01:25.741Z,49.37
2019-04-07T07:04:27.882Z,51.17
2019-04-07T07:07:23.728Z,49.90
2019-04-07T07:10:11.638Z,49.97
2019-04-07T07:13:02.310Z,54.60
2019-04-07T07:15:56.108Z,52.30
2019-04-07T07:18:50.984Z,53.53
2019-04-07T07:21:36.228Z,53.30
2019-04-07T07:24:04.996Z,54.37
2019-04-07T07:26:36.640Z,54.00
2019-04-07T07:29:08.346Z,53.87
2019-04-07T07:31:40.269Z,55.53
2019-04-07T07:34:11.861Z,55.63
2019-04-07T07:36:43.286Z,54.10
2019-04-07T07:39:14.608Z,53.87
2019-04-07T07:41:45.742Z,53.43
2019-04-07T07:44:17.618Z,54.83
2019-04-07T07:46:50.581Z,53.97
2019-04-07T07:49:35.215Z,55.97
2019-04-07T07:52:06.271Z,54.10
2019-04-07T07:54:37.258Z,55.97
2019-04-07T07:57:08.341Z,57.10
2019-04-07T07:59:40.401Z,55.57
2019-04-07T08:02:11.883Z,56.60
2019-04-07T08:04:44.489Z,56.43
2019-04-07T08:07:16.645Z,55.77
2019-04-07T08:09:49.303Z,57.53
2019-04-07T08:12:20.644Z,58.13
2019-04-07T08:14:55.280Z,56.03
2019-04-07T08:17:24.814Z,57.00
2019-04-07T08:19:56.690Z,58.43
2019-04-07T08:22:33.749Z,55.70
2019-04-07T08:25:01.030Z,62.85
2019-04-07T08:27:33.015Z,56.27
2019-04-07T08:30:09.931Z,56.93
2019-04-07T08:32:38.831Z,56.30
2019-04-07T08:35:10.025Z,57.90
2019-04-07T08:37:41.588Z,55.87
2019-04-07T08:40:13.028Z,54.80
2019-04-07T08:42:46.386Z,55.37
2019-04-07T08:45:17.892Z,56.00
2019-04-07T08:47:50.896Z,54.67
2019-04-07T08:50:22.731Z,54.17
2019-04-07T08:52:54.007Z,55.50
2019-04-07T08:55:25.655Z,55.10
2019-04-07T08:58:00.144Z,58.40
2019-04-07T09:00:31.593Z,53.80
2019-04-07T09:03:07.800Z,53.93
2019-04-07T09:05:36.442Z,54.77
2019-04-07T09:08:07.676Z,52.33
2019-04-07T09:10:49.211Z,54.60
2019-04-07T09:13:19.669Z,54.03
2019-04-07T09:16:15.119Z,53.37
2019-04-07T09:19:06.814Z,49.40
2019-04-07T09:21:50.192Z,50.13
2019-04-07T09:24:42.812Z,50.27
2019-04-07T09:27:23.128Z,50.90
2019-04-07T09:29:59.987Z,53.10
2019-04-07T09:32:53.095Z,49.50
2019-04-07T09:36:02.532Z,51.77
2019-04-07T09:38:51.359Z,48.03
2019-04-07T09:41:47.002Z,50.20
2019-04-07T09:44:33.861Z,46.97
2019-04-07T09:47:24.820Z,47.73
2019-04-07T09:50:18.551Z,50.83
2019-04-07T09:52:59.500Z,48.27
2019-04-07T09:55:48.940Z,47.00
2019-04-07T09:58:33.867Z,48.90
2019-04-07T10:01:30.778Z,44.47
2019-04-07T10:04:27.327Z,49.20
2019-04-07T10:07:20.736Z,43.02
2019-04-07T10:10:13.025Z,41.92
2019-04-07T10:13:03.824Z,43.10
2019-04-07T10:15:49.359Z,42.95
2019-04-07T10:18:38.410Z,42.20
2019-04-07T10:21:24.200Z,41.60
2019-04-07T10:24:11.860Z,41.70
2019-04-07T10:26:53.669Z,41.35
2019-04-07T10:29:55.843Z,38.50
2019-04-07T10:32:44.458Z,44.73
2019-04-07T10:35:25.574Z,37.78
2019-04-07T10:38:10.976Z,36.50
2019-04-07T10:41:07.337Z,34.33
2019-04-07T10:43:51.383Z,33.08
2019-04-07T10:46:40.930Z,34.73
2019-04-07T10:49:43.335Z,34.18
2019-04-07T10:52:23.540Z,28.20
2019-04-07T10:55:28.980Z,32.15
2019-04-07T10:58:08.253Z,29.20
2019-04-07T11:01:06.384Z,28.40
2019-04-07T11:04:12.688Z,32.38
2019-04-07T11:07:07.150Z,29.55
2019-04-07T11:10:03.752Z,27.73
2019-04-07T11:12:54.804Z,26.48
2019-04-07T11:15:44.450Z,24.47
2019-04-07T11:18:22.696Z,15.30
2019-04-07T11:21:06.339Z,17.02
2019-04-07T11:23:54.829Z,18.52
2019-04-07T11:26:42.874Z,15.85
2019-04-07T11:29:31.438Z,14.43
2019-04-07T11:32:28.133Z,14.03
2019-04-07T11:35:11.217Z,14.60
2019-04-07T11:38:10.735Z,14.50
2019-04-07T11:40:52.420Z,14.70
2019-04-07T11:43:46.875Z,14.70
2019-04-07T11:46:34.034Z,14.10
2019-04-07T11:49:16.491Z,15.00
2019-04-07T11:51:52.510Z,14.47
2019-04-07T11:54:43.835Z,14.80
2019-04-07T11:57:24.750Z,15.63
2019-04-07T12:00:31.197Z,15.48
2019-04-07T12:03:24.818Z,15.18
2019-04-07T12:06:19.171Z,16.25
2019-04-07T12:09:12.104Z,16.12
2019-04-07T12:12:02.494Z,17.40
2019-04-07T12:14:54.322Z,19.60
2019-04-07T12:17:34.838Z,19.45
2019-04-07T12:20:29.928Z,19.30
2019-04-07T12:23:27.131Z,19.30
2019-04-07T12:26:19.275Z,21.27
2019-04-07T12:29:09.071Z,20.75
2019-04-07T12:31:51.039Z,19.15
2019-04-07T12:34:38.661Z,19.48
2019-04-07T12:37:18.781Z,18.85
2019-04-07T12:40:15.240Z,19.98
2019-04-07T12:43:15.444Z,19.57
2019-04-07T12:46:03.614Z,20.80
2019-04-07T12:48:57.490Z,19.45
2019-04-07T12:51:35.655Z,17.37
2019-04-07T12:54:31.998Z,15.08
2019-04-07T12:57:35.426Z,15.63
2019-04-07T13:00:26.113Z,13.28
2019-04-07T13:03:15.051Z,14.13
2019-04-07T13:06:06.246Z,13.00
2019-04-07T13:09:00.707Z,11.33
2019-04-07T13:11:42.751Z,10.98
2019-04-07T13:14:29.217Z,10.58
2019-04-07T13:17:22.241Z,10.20
2019-04-07T13:20:10.876Z,10.38
2019-04-07T13:22:47.560Z,9.28
2019-04-07T13:25:29.815Z,9.05
2019-04-07T13:28:21.686Z,9.30
2019-04-07T13:31:19.153Z,9.65
2019-04-07T13:34:08.004Z,9.75
2019-04-07T13:37:08.036Z,9.05
2019-04-07T13:39:57.754Z,10.08
2019-04-07T13:42:37.934Z,10.00
2019-04-07T13:45:21.587Z,9.30
2019-04-07T13:48:20.050Z,8.90
2019-04-07T13:51:15.600Z,9.00
2019-04-07T13:54:10.878Z,9.40
2019-04-07T13:57:00.125Z,9.18
2019-04-07T13:59:49.163Z,10.85
2019-04-07T14:02:58.771Z,13.05
2019-04-07T14:05:54.974Z,11.08
2019-04-07T14:08:45.947Z,10.98
2019-04-07T14:11:53.432Z,11.18
2019-04-07T14:14:30.315Z,10.40
2019-04-07T14:17:24.660Z,8.45
2019-04-07T14:20:08.797Z,8.33
2019-04-07T14:22:55.578Z,7.90
2019-04-07T14:25:52.616Z,7.22
2019-04-07T14:28:44.204Z,7.50
2019-04-07T14:31:25.142Z,6.78
2019-04-07T14:34:15.613Z,8.03
2019-04-07T14:37:05.322Z,8.60
2019-04-07T14:39:55.472Z,8.75
2019-04-07T14:42:42.812Z,8.10
2019-04-07T14:45:34.095Z,8.50
2019-04-07T14:48:24.718Z,8.00
2019-04-07T14:51:17.911Z,8.78
2019-04-07T14:54:11.032Z,8.70
2019-04-07T14:56:54.235Z,9.08
2019-04-07T14:59:39.444Z,9.53
2019-04-07T15:02:11.639Z,8.90
2019-04-07T15:05:02.963Z,9.03
2019-04-07T15:08:11.764Z,9.00
2019-04-07T15:10:46.271Z,9.45
2019-04-07T15:13:23.940Z,11.20
2019-04-07T15:15:52.847Z,11.10
2019-04-07T15:18:24.142Z,10.78
2019-04-07T15:20:56.068Z,9.55
2019-04-07T15:23:29.469Z,10.10
2019-04-07T15:26:00.185Z,9.98
2019-04-07T15:28:33.187Z,9.75
2019-04-07T15:31:06.175Z,10.15
2019-04-07T15:33:38.213Z,10.63
2019-04-07T15:36:10.704Z,11.33
2019-04-07T15:38:42.901Z,11.10
2019-04-07T15:41:16.910Z,12.93
2019-04-07T15:43:47.454Z,12.30
2019-04-07T15:46:19.607Z,11.53
2019-04-07T15:48:54.292Z,12.25
2019-04-07T15:51:23.891Z,11.55
2019-04-07T15:53:56.547Z,11.28
2019-04-07T15:56:28.779Z,13.20
2019-04-07T15:59:01.310Z,11.40
2019-04-07T16:01:33.743Z,10.75
2019-04-07T16:04:06.797Z,13.18
2019-04-07T16:06:38.754Z,13.38
2019-04-07T16:09:14.089Z,11.43
2019-04-07T16:11:44.575Z,11.63
2019-04-07T16:14:15.920Z,11.60
2019-04-07T16:16:47.263Z,10.10
2019-04-07T16:19:24.910Z,11.60
2019-04-07T16:21:51.454Z,11.33
2019-04-07T16:24:23.033Z,10.88
2019-04-07T16:26:54.724Z,10.08
2019-04-07T16:29:25.987Z,10.55
2019-04-07T16:31:58.688Z,11.25
2019-04-07T16:34:30.461Z,10.32
2019-04-07T16:37:01.957Z,11.00
2019-04-07T16:39:34.625Z,11.50
2019-04-07T16:42:06.443Z,10.48
2019-04-07T16:44:40.664Z,11.00
2019-04-07T16:47:19.280Z,9.58
2019-04-07T16:49:46.613Z,10.00
2019-04-07T16:52:16.535Z,9.55
2019-04-07T16:54:47.832Z,10.23
2019-04-07T16:57:18.900Z,10.13
2019-04-07T16:59:50.914Z,8.98
2019-04-07T17:02:22.134Z,10.15
2019-04-07T17:04:53.871Z,9.85
2019-04-07T17:07:25.704Z,8.98
2019-04-07T17:09:57.804Z,15.38
2019-04-07T17:12:30.230Z,8.88
2019-04-07T17:15:04.610Z,8.78
2019-04-07T17:17:35.690Z,8.80
2019-04-07T17:20:08.741Z,8.80
2019-04-07T17:22:40.362Z,8.75
2019-04-07T17:25:12.208Z,8.13
2019-04-07T17:27:43.734Z,8.83
2019-04-07T17:30:17.395Z,10.00
2019-04-07T17:32:50.118Z,8.18
2019-04-07T17:35:21.471Z,10.40
2019-04-07T17:37:53.587Z,8.08
2019-04-07T17:40:28.871Z,9.00
2019-04-07T17:43:25.723Z,11.25
2019-04-07T17:46:05.101Z,9.10
2019-04-07T17:48:53.105Z,7.78
2019-04-07T17:51:49.902Z,7.65
2019-04-07T17:54:31.224Z,8.43
2019-04-07T17:57:36.635Z,7.70
2019-04-07T18:00:28.686Z,8.05
2019-04-07T18:03:11.215Z,7.00
2019-04-07T18:06:06.829Z,7.78
2019-04-07T18:08:48.621Z,6.97
2019-04-07T18:11:44.868Z,7.10
2019-04-07T18:14:38.566Z,8.33
2019-04-07T18:17:26.850Z,8.20
2019-04-07T18:20:38.255Z,22.52
2019-04-07T18:23:26.037Z,34.18
2019-04-07T18:26:06.197Z,38.75
2019-04-07T18:28:55.190Z,39.10
2019-04-07T18:31:45.545Z,38.88
2019-04-07T18:34:42.992Z,37.45
2019-04-07T18:37:52.943Z,36.63
2019-04-07T18:40:36.004Z,38.55
2019-04-07T18:43:26.671Z,36.28
2019-04-07T18:46:16.837Z,43.45
2019-04-07T18:49:09.076Z,45.57
2019-04-07T18:51:58.177Z,42.43
2019-04-07T18:54:42.383Z,43.83
2019-04-07T18:57:24.960Z,48.87
2019-04-07T19:00:14.785Z,49.83
2019-04-07T19:03:14.433Z,50.63
2019-04-07T19:06:06.070Z,50.67
2019-04-07T19:09:04.774Z,49.03
2019-04-07T19:12:02.772Z,49.47
2019-04-07T19:14:48.901Z,50.03
2019-04-07T19:17:35.029Z,51.17
2019-04-07T19:20:24.812Z,55.57
2019-04-07T19:23:26.275Z,57.13
2019-04-07T19:26:06.309Z,63.97
2019-04-07T19:28:56.672Z,64.80
2019-04-07T19:31:42.351Z,71.97
2019-04-07T19:34:23.700Z,70.43
2019-04-07T19:37:08.220Z,77.53
2019-04-07T19:39:53.544Z,78.03
2019-04-07T19:42:43.975Z,78.47
2019-04-07T19:45:37.049Z,80.47
2019-04-07T19:48:27.389Z,80.43
2019-04-07T19:51:14.365Z,77.63
2019-04-07T19:54:07.765Z,78.27
2019-04-07T19:56:53.435Z,76.80
2019-04-07T19:59:42.861Z,75.70
2019-04-07T20:02:42.507Z,76.13
2019-04-07T20:05:38.725Z,78.17
2019-04-07T20:08:46.927Z,74.30
2019-04-07T20:11:35.765Z,75.73
2019-04-07T20:14:14.449Z,76.87
2019-04-07T20:17:04.111Z,80.80
2019-04-07T20:20:04.295Z,79.17
2019-04-07T20:22:43.808Z,78.70
2019-04-07T20:25:37.574Z,78.03
2019-04-07T20:28:34.318Z,78.83
2019-04-07T20:31:27.810Z,77.43
2019-04-07T20:34:18.353Z,75.33
2019-04-07T20:37:05.133Z,73.77
2019-04-07T20:39:59.243Z,73.50
2019-04-07T20:42:46.352Z,74.23
2019-04-07T20:45:40.774Z,75.83
2019-04-07T20:48:35.915Z,74.63
2019-04-07T20:51:22.174Z,74.77
2019-04-07T20:54:15.342Z,74.40
2019-04-07T20:57:23.637Z,76.37
2019-04-07T21:00:27.301Z,79.13
2019-04-07T21:03:29.450Z,77.67
2019-04-07T21:06:19.989Z,76.57
2019-04-07T21:09:06.258Z,76.27
2019-04-07T21:11:56.789Z,77.00
2019-04-07T21:14:45.337Z,76.23
2019-04-07T21:17:25.818Z,76.97
2019-04-07T21:20:16.907Z,74.80
2019-04-07T21:23:14.062Z,73.90
2019-04-07T21:26:01.894Z,77.23
2019-04-07T21:28:38.950Z,74.87
2019-04-07T21:31:18.616Z,75.17
2019-04-07T21:34:01.218Z,75.23
2019-04-07T21:36:48.444Z,74.43
2019-04-07T21:39:41.745Z,77.27
2019-04-07T21:42:32.070Z,76.80
2019-04-07T21:45:37.040Z,79.03
2019-04-07T21:48:32.090Z,79.43
2019-04-07T21:51:24.995Z,79.37
2019-04-07T21:54:33.859Z,83.60
2019-04-07T21:57:25.552Z,80.97
2019-04-07T22:00:26.756Z,80.17
2019-04-07T22:03:21.316Z,79.27
2019-04-07T22:06:17.696Z,79.63
2019-04-07T22:08:53.948Z,80.03
2019-04-07T22:11:28.152Z,82.43
2019-04-07T22:13:57.765Z,81.77
2019-04-07T22:16:31.387Z,84.37
2019-04-07T22:19:01.530Z,82.40
2019-04-07T22:21:34.078Z,78.50
2019-04-07T22:24:05.473Z,80.53
2019-04-07T22:26:37.094Z,81.93
2019-04-07T22:29:08.281Z,79.33
2019-04-07T22:31:49.312Z,86.30
2019-04-07T22:34:20.809Z,83.13
2019-04-07T22:36:52.369Z,85.27
2019-04-07T22:39:27.511Z,90.50
2019-04-07T22:41:57.167Z,86.63
2019-04-07T22:44:29.536Z,89.90
2019-04-07T22:47:00.695Z,89.07
2019-04-07T22:49:32.446Z,90.87
2019-04-07T22:52:03.909Z,89.57
2019-04-07T22:54:37.025Z,92.83
2019-04-07T22:57:10.298Z,86.90
2019-04-07T22:59:40.703Z,91.87
2019-04-07T23:02:11.832Z,90.23
2019-04-07T23:04:43.170Z,90.13
2019-04-07T23:07:14.328Z,92.57
2019-04-07T23:09:45.996Z,92.87
2019-04-07T23:12:17.447Z,92.17
2019-04-07T23:14:49.682Z,88.47
2019-04-07T23:17:20.983Z,94.10
2019-04-07T23:19:52.522Z,92.63
2019-04-07T23:22:23.663Z,90.73
2019-04-07T23:24:55.097Z,93.40
2019-04-07T23:27:26.461Z,95.00
2019-04-07T23:29:57.906Z,91.70
2019-04-07T23:32:31.161Z,95.33
2019-04-07T23:35:02.440Z,92.23
2019-04-07T23:37:34.685Z,93.87
2019-04-07T23:40:06.590Z,94.73
2019-04-07T23:42:38.255Z,92.93
2019-04-07T23:45:10.328Z,93.97
2019-04-07T23:47:42.782Z,95.60
2019-04-07T23:50:14.653Z,93.03
2019-04-07T23:52:45.984Z,93.90
2019-04-07T23:55:17.168Z,97.23
2019-04-07T23:57:48.701Z,96.17
